createdAt,value
2019-05-29T00:01:56.232Z,77.70
2019-05-29T00:04:24.673Z,77.70
2019-05-29T00:06:53.101Z,78.20
2019-05-29T00:09:21.549Z,77.90
2019-05-29T00:11:50.036Z,78.50
2019-05-29T00:14:26.932Z,78.40
2019-05-29T00:16:48.818Z,79.20
2019-05-29T00:19:17.371Z,78.80
2019-05-29T00:21:47.183Z,79.40
2019-05-29T00:24:15.687Z,79.40
2019-05-29T00:26:44.102Z,79.50
2019-05-29T00:29:13.753Z,79.40
2019-05-29T00:31:42.284Z,79.60
2019-05-29T00:34:11.022Z,79.60
2019-05-29T00:36:39.540Z,79.70
2019-05-29T00:39:08.670Z,79.80
2019-05-29T00:41:37.322Z,79.80
2019-05-29T00:44:07.036Z,80.70
2019-05-29T00:46:35.604Z,80.80
2019-05-29T00:49:04.113Z,80.80
2019-05-29T00:51:32.597Z,80.60
2019-05-29T00:54:01.620Z,81.00
2019-05-29T00:56:30.076Z,80.80
2019-05-29T00:58:58.576Z,81.10
2019-05-29T01:01:27.011Z,81.10
2019-05-29T01:03:55.452Z,81.30
2019-05-29T01:06:23.876Z,81.30
2019-05-29T01:08:52.329Z,81.10
2019-05-29T01:11:21.016Z,81.40
2019-05-29T01:13:49.531Z,81.60
2019-05-29T01:16:17.981Z,81.80
2019-05-29T01:18:46.406Z,82.10
2019-05-29T01:21:15.892Z,82.30
2019-05-29T01:23:44.454Z,82.50
2019-05-29T01:26:12.887Z,82.90
2019-05-29T01:28:41.333Z,83.50
2019-05-29T01:31:09.765Z,84.60
2019-05-29T01:33:38.198Z,84.20
2019-05-29T01:36:06.645Z,84.70
2019-05-29T01:38:35.074Z,85.00
2019-05-29T01:41:03.594Z,85.70
2019-05-29T01:43:32.023Z,86.10
2019-05-29T01:46:00.458Z,86.30
2019-05-29T01:48:28.880Z,86.50
2019-05-29T01:50:57.328Z,87.00
2019-05-29T01:53:25.749Z,87.80
2019-05-29T01:55:54.209Z,89.50
2019-05-29T01:58:23.874Z,90.20
2019-05-29T02:00:52.411Z,90.50
2019-05-29T02:03:21.952Z,90.60
2019-05-29T02:05:50.762Z,90.70
2019-05-29T02:08:20.055Z,91.30
2019-05-29T02:10:48.561Z,91.60
2019-05-29T02:13:17.256Z,91.60
2019-05-29T02:15:45.980Z,91.80
2019-05-29T02:18:14.396Z,92.00
2019-05-29T02:20:42.834Z,92.20
2019-05-29T02:23:11.345Z,92.10
2019-05-29T02:25:39.805Z,92.30
2019-05-29T02:28:09.921Z,91.80
2019-05-29T02:30:38.352Z,91.70
2019-05-29T02:33:06.847Z,92.00
2019-05-29T02:35:35.338Z,92.20
2019-05-29T02:38:03.783Z,91.40
2019-05-29T02:40:32.222Z,91.70
2019-05-29T02:43:00.781Z,92.10
2019-05-29T02:45:50.290Z,92.20
2019-05-29T02:47:59.449Z,92.50
2019-05-29T02:50:29.311Z,92.40
2019-05-29T02:52:58.263Z,92.40
2019-05-29T02:55:27.021Z,92.70
2019-05-29T02:57:56.077Z,92.60
2019-05-29T03:00:31.430Z,92.60
2019-05-29T03:03:00.081Z,92.50
2019-05-29T03:05:29.845Z,92.80
2019-05-29T03:07:58.499Z,93.00
2019-05-29T03:10:28.630Z,92.70
2019-05-29T03:12:57.337Z,92.50
2019-05-29T03:15:27.045Z,92.00
2019-05-29T03:17:57.110Z,92.30
2019-05-29T03:20:25.987Z,92.10
2019-05-29T03:22:54.557Z,92.40
2019-05-29T03:25:24.324Z,92.50
2019-05-29T03:27:52.861Z,92.40
2019-05-29T03:30:21.498Z,92.60
2019-05-29T03:32:49.977Z,92.30
2019-05-29T03:35:18.411Z,92.20
2019-05-29T03:37:46.867Z,92.40
2019-05-29T03:40:15.317Z,92.10
2019-05-29T03:42:43.791Z,92.00
2019-05-29T03:45:12.351Z,91.80
2019-05-29T03:47:40.785Z,91.70
2019-05-29T03:50:09.773Z,91.50
2019-05-29T03:52:38.813Z,91.70
2019-05-29T03:55:08.261Z,91.80
2019-05-29T03:57:38.176Z,91.90
2019-05-29T04:00:08.755Z,91.80
2019-05-29T04:02:38.141Z,91.70
2019-05-29T04:05:08.105Z,91.60
2019-05-29T04:07:38.081Z,92.00
2019-05-29T04:10:08.081Z,91.90
2019-05-29T04:12:38.013Z,91.80
2019-05-29T04:15:07.564Z,91.80
2019-05-29T04:17:38.242Z,92.00
2019-05-29T04:20:08.164Z,92.20
2019-05-29T04:22:42.420Z,92.30
2019-05-29T04:25:11.362Z,92.60
2019-05-29T04:27:41.887Z,92.30
2019-05-29T04:30:11.029Z,92.10
2019-05-29T04:32:39.450Z,91.90
2019-05-29T04:35:08.020Z,92.30
2019-05-29T04:37:37.051Z,92.40
2019-05-29T04:40:07.943Z,92.50
2019-05-29T04:42:37.669Z,92.50
2019-05-29T04:45:08.119Z,92.40
2019-05-29T04:47:37.364Z,92.30
2019-05-29T04:50:07.321Z,92.30
2019-05-29T04:52:37.644Z,92.30
2019-05-29T04:55:05.996Z,92.40
2019-05-29T04:57:34.950Z,92.50
2019-05-29T05:00:04.733Z,92.50
2019-05-29T05:02:33.180Z,92.40
2019-05-29T05:05:01.610Z,92.20
2019-05-29T05:07:31.088Z,92.40
2019-05-29T05:09:59.600Z,92.20
2019-05-29T05:12:29.492Z,92.40
2019-05-29T05:14:58.399Z,92.40
2019-05-29T05:17:27.044Z,92.20
2019-05-29T05:19:55.492Z,92.40
2019-05-29T05:22:24.099Z,92.10
2019-05-29T05:24:52.577Z,92.50
2019-05-29T05:27:21.030Z,92.70
2019-05-29T05:29:49.469Z,92.50
2019-05-29T05:32:17.925Z,92.40
2019-05-29T05:34:46.420Z,92.40
2019-05-29T05:37:14.866Z,92.30
2019-05-29T05:39:43.432Z,92.70
2019-05-29T05:42:11.948Z,92.50
2019-05-29T05:44:41.132Z,92.40
2019-05-29T05:47:09.738Z,92.50
2019-05-29T05:49:39.416Z,92.40
2019-05-29T05:52:08.123Z,92.50
2019-05-29T05:54:38.054Z,92.30
2019-05-29T05:57:06.469Z,92.50
2019-05-29T05:59:35.758Z,92.40
2019-05-29T06:02:04.618Z,92.30
2019-05-29T06:04:33.805Z,92.30
2019-05-29T06:07:02.409Z,92.50
2019-05-29T06:09:32.580Z,92.40
2019-05-29T06:12:01.216Z,92.80
2019-05-29T06:14:29.676Z,92.80
2019-05-29T06:16:58.130Z,92.80
2019-05-29T06:19:26.640Z,92.80
2019-05-29T06:21:55.173Z,92.80
2019-05-29T06:24:23.826Z,92.80
2019-05-29T06:26:52.394Z,92.60
2019-05-29T06:29:20.881Z,92.40
2019-05-29T06:31:49.314Z,92.40
2019-05-29T06:34:17.785Z,92.50
2019-05-29T06:36:48.327Z,92.40
2019-05-29T06:39:16.376Z,92.50
2019-05-29T06:41:44.805Z,92.70
2019-05-29T06:44:13.333Z,92.60
2019-05-29T06:46:42.573Z,92.90
2019-05-29T06:49:11.142Z,92.50
2019-05-29T06:51:39.576Z,92.60
2019-05-29T06:54:08.092Z,92.80
2019-05-29T06:56:37.619Z,92.60
2019-05-29T06:59:06.320Z,92.60
2019-05-29T07:01:35.247Z,92.70
2019-05-29T07:04:11.854Z,92.90
2019-05-29T07:06:34.297Z,92.90
2019-05-29T07:09:02.822Z,92.70
2019-05-29T07:11:31.242Z,93.00
2019-05-29T07:13:59.687Z,92.80
2019-05-29T07:16:43.238Z,92.70
2019-05-29T07:21:28.495Z,92.60
2019-05-29T07:23:56.967Z,92.30
2019-05-29T07:26:25.441Z,92.40
2019-05-29T07:29:06.786Z,92.30
2019-05-29T07:31:24.055Z,92.60
2019-05-29T07:33:52.554Z,92.90
2019-05-29T07:36:21.031Z,92.80
2019-05-29T07:39:02.233Z,92.80
2019-05-29T07:41:19.652Z,92.40
2019-05-29T07:43:48.172Z,92.70
2019-05-29T07:46:17.506Z,92.20
2019-05-29T07:48:48.030Z,92.20
2019-05-29T07:51:16.081Z,92.20
2019-05-29T07:53:44.531Z,92.30
2019-05-29T07:56:22.098Z,92.10
2019-05-29T07:58:49.041Z,91.80
2019-05-29T08:01:14.062Z,91.70
2019-05-29T08:03:43.465Z,91.80
2019-05-29T08:06:12.251Z,91.70
2019-05-29T08:08:41.192Z,91.80
2019-05-29T08:11:09.782Z,91.60
2019-05-29T08:13:39.383Z,91.40
2019-05-29T08:16:08.019Z,91.50
2019-05-29T08:18:36.570Z,91.70
2019-05-29T08:21:05.027Z,91.20
2019-05-29T08:23:33.432Z,90.50
2019-05-29T08:26:01.936Z,90.30
2019-05-29T08:28:30.368Z,90.50
2019-05-29T08:30:58.803Z,90.50
2019-05-29T08:33:27.247Z,90.10
2019-05-29T08:36:00.131Z,90.00
2019-05-29T08:38:25.809Z,90.30
2019-05-29T08:40:54.233Z,90.10
2019-05-29T08:43:22.731Z,89.80
2019-05-29T08:45:52.728Z,88.90
2019-05-29T08:48:21.301Z,88.30
2019-05-29T08:50:49.991Z,88.50
2019-05-29T08:53:18.621Z,87.90
2019-05-29T08:55:48.159Z,87.30
2019-05-29T08:58:16.946Z,86.90
2019-05-29T09:00:48.526Z,87.00
2019-05-29T09:03:15.603Z,86.10
2019-05-29T09:05:44.564Z,87.10
2019-05-29T09:08:13.167Z,87.50
2019-05-29T09:10:43.118Z,87.20
2019-05-29T09:13:11.812Z,87.30
2019-05-29T09:15:40.241Z,86.10
2019-05-29T09:18:08.736Z,87.10
2019-05-29T09:21:00.860Z,86.80
2019-05-29T09:23:07.338Z,86.50
2019-05-29T09:25:35.747Z,85.90
2019-05-29T09:28:18.039Z,85.30
2019-05-29T09:30:46.329Z,84.00
2019-05-29T09:33:16.176Z,83.60
2019-05-29T09:35:44.921Z,83.90
2019-05-29T09:38:14.062Z,83.10
2019-05-29T09:40:43.668Z,82.60
2019-05-29T09:43:12.106Z,81.80
2019-05-29T09:45:40.524Z,81.40
2019-05-29T09:48:08.969Z,81.10
2019-05-29T09:50:49.716Z,80.50
2019-05-29T09:53:07.626Z,81.10
2019-05-29T09:55:36.125Z,82.30
2019-05-29T09:58:04.760Z,81.80
2019-05-29T10:00:33.293Z,81.30
2019-05-29T10:03:01.765Z,81.70
2019-05-29T10:05:30.243Z,81.90
2019-05-29T10:07:59.720Z,81.80
2019-05-29T10:10:28.609Z,82.00
2019-05-29T10:12:58.013Z,80.90
2019-05-29T10:15:26.691Z,80.60
2019-05-29T10:17:55.725Z,79.50
2019-05-29T10:20:26.672Z,80.20
2019-05-29T10:22:55.683Z,80.50
2019-05-29T10:25:25.314Z,80.90
2019-05-29T10:27:53.836Z,80.90
2019-05-29T10:30:23.145Z,81.40
2019-05-29T10:32:52.939Z,81.30
2019-05-29T10:35:21.647Z,80.10
2019-05-29T10:37:50.736Z,80.60
2019-05-29T10:40:19.484Z,80.60
2019-05-29T10:42:49.088Z,80.70
2019-05-29T10:45:18.080Z,80.60
2019-05-29T10:47:47.424Z,80.10
2019-05-29T10:50:16.440Z,78.70
2019-05-29T10:52:45.845Z,78.70
2019-05-29T10:55:16.402Z,78.00
2019-05-29T10:57:44.843Z,77.80
2019-05-29T11:00:13.576Z,77.30
2019-05-29T11:02:42.039Z,76.90
2019-05-29T11:05:10.802Z,76.10
2019-05-29T11:07:39.242Z,76.00
2019-05-29T11:10:12.664Z,75.90
2019-05-29T11:12:39.930Z,76.70
2019-05-29T11:15:20.772Z,77.70
2019-05-29T11:17:39.535Z,77.60
2019-05-29T11:20:09.057Z,78.00
2019-05-29T11:22:37.500Z,77.70
2019-05-29T11:25:21.441Z,77.00
2019-05-29T11:27:37.465Z,76.20
2019-05-29T11:30:08.425Z,76.50
2019-05-29T11:32:36.957Z,75.80
2019-05-29T11:35:06.220Z,75.80
2019-05-29T11:37:34.661Z,75.90
2019-05-29T11:40:04.058Z,75.00
2019-05-29T11:42:32.589Z,76.60
2019-05-29T11:45:01.086Z,76.40
2019-05-29T11:47:29.618Z,75.70
2019-05-29T11:50:07.568Z,75.40
2019-05-29T11:52:39.801Z,75.10
2019-05-29T11:55:00.064Z,73.30
2019-05-29T11:57:28.694Z,73.40
2019-05-29T12:00:00.168Z,74.40
2019-05-29T12:02:27.341Z,72.80
2019-05-29T12:04:55.770Z,72.40
2019-05-29T12:07:24.230Z,72.80
2019-05-29T12:09:53.315Z,71.70
2019-05-29T12:12:21.991Z,72.00
2019-05-29T12:15:00.334Z,73.80
2019-05-29T12:17:20.784Z,74.00
2019-05-29T12:19:49.333Z,74.50
2019-05-29T12:22:17.792Z,74.40
2019-05-29T12:24:46.284Z,74.50
2019-05-29T12:27:14.892Z,73.90
2019-05-29T12:29:43.390Z,73.40
2019-05-29T12:32:12.541Z,74.20
2019-05-29T12:34:53.145Z,73.10
2019-05-29T12:37:11.544Z,73.20
2019-05-29T12:39:40.022Z,72.50
2019-05-29T12:42:08.440Z,72.80
2019-05-29T12:44:36.969Z,72.70
2019-05-29T12:47:05.745Z,73.90
2019-05-29T12:49:34.358Z,73.60
2019-05-29T12:52:07.185Z,74.40
2019-05-29T12:54:33.154Z,74.00
2019-05-29T12:57:02.354Z,73.90
2019-05-29T12:59:31.121Z,73.70
2019-05-29T13:02:00.579Z,73.30
2019-05-29T13:04:29.250Z,72.90
2019-05-29T13:06:58.642Z,73.00
2019-05-29T13:09:27.332Z,72.80
2019-05-29T13:11:56.471Z,72.50
2019-05-29T13:14:25.294Z,72.10
2019-05-29T13:16:54.740Z,71.80
2019-05-29T13:19:23.361Z,71.70
2019-05-29T13:21:51.800Z,71.70
2019-05-29T13:24:20.216Z,72.80
2019-05-29T13:26:48.629Z,71.30
2019-05-29T13:29:17.069Z,71.30
2019-05-29T13:31:45.640Z,71.70
2019-05-29T13:34:14.184Z,71.20
2019-05-29T13:36:42.650Z,71.20
2019-05-29T13:39:11.150Z,72.50
2019-05-29T13:41:39.604Z,70.50
2019-05-29T13:44:08.048Z,70.30
2019-05-29T13:46:36.525Z,68.70
2019-05-29T13:49:05.165Z,68.80
2019-05-29T13:51:33.768Z,68.90
2019-05-29T13:54:09.274Z,68.80
2019-05-29T13:56:32.619Z,68.60
2019-05-29T13:59:02.062Z,67.70
2019-05-29T14:01:30.787Z,68.30
2019-05-29T14:04:00.130Z,65.90
2019-05-29T14:06:29.105Z,66.20
2019-05-29T14:08:58.770Z,65.50
2019-05-29T14:11:27.578Z,65.20
2019-05-29T14:13:55.997Z,66.00
2019-05-29T14:16:24.437Z,65.80
2019-05-29T14:18:52.893Z,64.70
2019-05-29T14:21:21.472Z,64.70
2019-05-29T14:23:49.977Z,64.40
2019-05-29T14:26:18.519Z,65.80
2019-05-29T14:28:46.946Z,64.60
2019-05-29T14:31:15.432Z,64.60
2019-05-29T14:33:43.902Z,63.30
2019-05-29T14:36:12.315Z,62.50
2019-05-29T14:38:40.782Z,62.00
2019-05-29T14:41:09.896Z,62.80
2019-05-29T14:43:38.449Z,62.80
2019-05-29T14:46:07.990Z,62.00
2019-05-29T14:48:36.671Z,61.50
2019-05-29T14:51:06.607Z,61.80
2019-05-29T14:53:35.153Z,61.40
2019-05-29T14:56:04.479Z,61.20
2019-05-29T14:58:33.156Z,61.90
2019-05-29T15:01:02.972Z,62.60
2019-05-29T15:03:31.673Z,64.00
2019-05-29T15:06:00.086Z,62.20
2019-05-29T15:08:28.533Z,63.00
2019-05-29T15:10:57.056Z,61.50
2019-05-29T15:13:25.481Z,61.90
2019-05-29T15:15:53.925Z,61.30
2019-05-29T15:18:22.397Z,61.70
2019-05-29T15:20:50.899Z,61.50
2019-05-29T15:23:19.424Z,62.60
2019-05-29T15:25:47.837Z,63.20
2019-05-29T15:28:17.893Z,64.00
2019-05-29T15:30:46.436Z,63.40
2019-05-29T15:33:14.992Z,63.70
2019-05-29T15:35:43.509Z,64.90
2019-05-29T15:38:12.850Z,63.60
2019-05-29T15:40:41.349Z,63.40
2019-05-29T15:43:10.850Z,63.30
2019-05-29T15:45:39.441Z,63.00
2019-05-29T15:48:08.938Z,63.10
2019-05-29T15:50:37.478Z,63.20
2019-05-29T15:53:07.105Z,63.70
2019-05-29T15:55:35.650Z,64.10
2019-05-29T15:58:04.694Z,64.40
2019-05-29T16:00:33.385Z,64.60
2019-05-29T16:03:02.056Z,64.30
2019-05-29T16:05:30.535Z,65.20
2019-05-29T16:07:59.024Z,65.90
2019-05-29T16:10:27.665Z,65.60
2019-05-29T16:12:56.117Z,66.10
2019-05-29T16:15:24.618Z,65.50
2019-05-29T16:17:53.053Z,66.50
2019-05-29T16:20:22.823Z,68.00
2019-05-29T16:22:51.501Z,68.70
2019-05-29T16:25:35.548Z,69.30
2019-05-29T16:27:50.237Z,71.40
2019-05-29T16:30:20.038Z,72.20
2019-05-29T16:32:49.788Z,71.90
2019-05-29T16:35:19.586Z,71.70
2019-05-29T16:37:48.162Z,72.10
2019-05-29T16:40:18.143Z,72.10
2019-05-29T16:42:46.699Z,71.80
2019-05-29T16:45:16.380Z,71.50
2019-05-29T16:47:45.005Z,71.80
2019-05-29T16:50:17.288Z,72.50
2019-05-29T16:52:45.811Z,72.80
2019-05-29T16:55:17.206Z,73.80
2019-05-29T16:57:45.981Z,73.60
2019-05-29T17:00:17.437Z,73.90
2019-05-29T17:02:46.187Z,74.20
2019-05-29T17:05:15.798Z,74.80
2019-05-29T17:07:44.518Z,74.90
2019-05-29T17:10:16.174Z,75.50
2019-05-29T17:12:44.739Z,75.80
2019-05-29T17:15:17.109Z,76.20
2019-05-29T17:17:45.875Z,76.60
2019-05-29T17:20:14.803Z,76.60
2019-05-29T17:22:43.296Z,76.50
2019-05-29T17:25:11.894Z,76.30
2019-05-29T17:27:40.356Z,76.40
2019-05-29T17:30:09.736Z,76.40
2019-05-29T17:32:38.313Z,76.20
2019-05-29T17:35:08.339Z,75.90
2019-05-29T17:37:37.199Z,75.70
2019-05-29T17:40:06.933Z,75.60
2019-05-29T17:42:35.536Z,75.20
2019-05-29T17:45:08.739Z,75.10
2019-05-29T17:47:37.537Z,74.80
2019-05-29T17:50:09.898Z,73.90
2019-05-29T17:52:38.509Z,74.40
2019-05-29T17:55:08.081Z,74.50
2019-05-29T17:57:36.547Z,74.10
2019-05-29T18:00:11.741Z,73.90
2019-05-29T18:02:51.405Z,73.70
2019-05-29T18:05:10.390Z,73.30
2019-05-29T18:07:38.900Z,73.30
2019-05-29T18:10:09.497Z,72.90
2019-05-29T18:12:38.719Z,72.90
2019-05-29T18:15:09.086Z,73.00
2019-05-29T18:17:37.547Z,72.90
2019-05-29T18:20:07.346Z,72.60
2019-05-29T18:22:37.213Z,72.40
2019-05-29T18:25:06.952Z,71.90
2019-05-29T18:27:35.493Z,72.00
2019-05-29T18:30:08.322Z,73.10
2019-05-29T18:32:37.771Z,72.90
2019-05-29T18:35:10.038Z,74.30
2019-05-29T18:37:38.600Z,74.70
2019-05-29T18:40:12.508Z,75.40
2019-05-29T18:42:38.969Z,75.20
2019-05-29T18:45:20.238Z,74.90
2019-05-29T18:47:39.147Z,75.10
2019-05-29T18:50:08.632Z,75.30
2019-05-29T18:52:37.867Z,75.90
2019-05-29T18:55:09.824Z,76.20
2019-05-29T18:57:38.408Z,76.20
2019-05-29T19:00:11.867Z,76.70
2019-05-29T19:02:40.302Z,77.50
2019-05-29T19:05:10.125Z,78.30
2019-05-29T19:07:38.674Z,78.40
2019-05-29T19:10:07.974Z,78.20
2019-05-29T19:12:36.568Z,78.70
2019-05-29T19:15:08.610Z,79.20
2019-05-29T19:17:37.973Z,78.80
2019-05-29T19:20:07.349Z,78.40
2019-05-29T19:22:35.862Z,78.90
2019-05-29T19:25:06.325Z,79.50
2019-05-29T19:27:41.484Z,79.50
2019-05-29T19:30:08.487Z,79.80
2019-05-29T19:32:37.026Z,80.20
2019-05-29T19:35:08.565Z,80.60
2019-05-29T19:37:37.245Z,81.20
2019-05-29T19:40:07.697Z,81.10
2019-05-29T19:42:36.424Z,81.00
2019-05-29T19:45:07.610Z,81.00
2019-05-29T19:47:36.212Z,81.10
2019-05-29T19:50:10.656Z,81.20
2019-05-29T19:52:38.619Z,81.50
2019-05-29T19:55:07.853Z,82.40
2019-05-29T19:57:52.518Z,83.10
2019-05-29T20:00:09.323Z,83.40
2019-05-29T20:02:38.596Z,83.70
2019-05-29T20:05:07.733Z,83.80
2019-05-29T20:07:37.560Z,84.10
2019-05-29T20:10:07.894Z,84.60
2019-05-29T20:12:36.345Z,84.60
2019-05-29T20:15:06.706Z,84.90
2019-05-29T20:17:36.259Z,86.10
2019-05-29T20:20:06.960Z,85.40
2019-05-29T20:22:37.085Z,85.30
2019-05-29T20:25:07.452Z,85.30
2019-05-29T20:27:36.355Z,85.30
2019-05-29T20:30:07.310Z,85.30
2019-05-29T20:32:36.821Z,85.40
2019-05-29T20:35:06.179Z,86.10
2019-05-29T20:37:34.757Z,86.70
2019-05-29T20:40:04.421Z,86.70
2019-05-29T20:42:34.122Z,86.90
2019-05-29T20:45:02.855Z,87.00
2019-05-29T20:47:31.644Z,87.20
2019-05-29T20:50:00.282Z,87.00
2019-05-29T20:52:28.798Z,87.10
2019-05-29T20:54:58.644Z,87.20
2019-05-29T20:57:27.420Z,87.20
2019-05-29T20:59:55.957Z,87.30
2019-05-29T21:02:24.526Z,87.40
2019-05-29T21:04:52.990Z,87.60
2019-05-29T21:07:21.493Z,87.50
2019-05-29T21:09:49.984Z,88.10
2019-05-29T21:12:18.401Z,87.90
2019-05-29T21:14:46.922Z,87.70
2019-05-29T21:17:15.366Z,87.80
2019-05-29T21:19:44.705Z,87.90
2019-05-29T21:22:13.310Z,88.40
2019-05-29T21:24:46.343Z,88.60
2019-05-29T21:27:12.212Z,88.50
2019-05-29T21:29:41.244Z,88.40
2019-05-29T21:32:09.848Z,88.50
2019-05-29T21:34:38.341Z,88.80
2019-05-29T21:37:06.855Z,88.90
2019-05-29T21:39:36.286Z,88.90
2019-05-29T21:42:04.960Z,88.80
2019-05-29T21:44:33.423Z,88.80
2019-05-29T21:47:01.855Z,88.80
2019-05-29T21:49:31.668Z,89.10
2019-05-29T21:52:00.300Z,89.50
2019-05-29T21:54:28.765Z,89.70
2019-05-29T21:56:57.282Z,89.80
2019-05-29T21:59:25.757Z,89.90
2019-05-29T22:01:54.435Z,90.00
2019-05-29T22:04:22.974Z,90.10
2019-05-29T22:06:51.391Z,90.00
2019-05-29T22:09:19.909Z,90.10
2019-05-29T22:11:48.497Z,90.00
2019-05-29T22:14:17.065Z,90.10
2019-05-29T22:16:45.684Z,90.20
2019-05-29T22:19:14.173Z,90.20
2019-05-29T22:21:42.627Z,90.30
2019-05-29T22:24:11.130Z,90.40
2019-05-29T22:26:39.566Z,90.40
2019-05-29T22:29:17.766Z,90.50
2019-05-29T22:31:38.205Z,90.50
2019-05-29T22:34:06.617Z,90.40
2019-05-29T22:36:35.121Z,90.40
2019-05-29T22:39:04.697Z,90.40
2019-05-29T22:41:33.209Z,90.60
2019-05-29T22:44:02.593Z,90.60
2019-05-29T22:46:31.179Z,90.60
2019-05-29T22:48:59.860Z,90.60
2019-05-29T22:51:28.304Z,90.60
2019-05-29T22:53:57.826Z,90.60
2019-05-29T22:56:26.571Z,90.70
2019-05-29T22:58:56.014Z,90.70
2019-05-29T23:01:24.716Z,91.00
2019-05-29T23:03:54.117Z,90.70
2019-05-29T23:06:22.726Z,90.80
2019-05-29T23:08:52.136Z,90.80
2019-05-29T23:11:20.720Z,90.90
2019-05-29T23:13:49.136Z,90.90
2019-05-29T23:16:17.531Z,91.00
2019-05-29T23:18:45.966Z,91.00
2019-05-29T23:21:14.401Z,90.90
2019-05-29T23:23:42.876Z,91.30
2019-05-29T23:26:11.330Z,91.00
2019-05-29T23:28:39.823Z,91.10
2019-05-29T23:31:08.246Z,91.00
2019-05-29T23:33:36.722Z,91.50
2019-05-29T23:36:05.202Z,91.10
2019-05-29T23:38:33.716Z,91.10
2019-05-29T23:41:03.634Z,91.10
2019-05-29T23:43:32.375Z,91.00
2019-05-29T23:46:02.369Z,91.40
2019-05-29T23:48:31.046Z,91.10
2019-05-29T23:50:59.579Z,91.30
2019-05-29T23:53:28.189Z,91.40
2019-05-29T23:55:57.623Z,91.40
2019-05-29T23:58:26.353Z,91.50
